createdAt,value
2024-05-09T00:00:51.131Z,97448.06
2024-05-09T00:03:21.328Z,97439.34
2024-05-09T00:05:53.929Z,97431.44
2024-05-09T00:08:24.045Z,97437.69
2024-05-09T00:10:54.161Z,97436.28
2024-05-09T00:13:24.042Z,97431.41
2024-05-09T00:15:53.859Z,97431.00
2024-05-09T00:18:24.047Z,97441.16
2024-05-09T00:20:56.839Z,97429.59
2024-05-09T00:23:26.732Z,97421.47
2024-05-09T00:25:56.656Z,97418.41
2024-05-09T00:28:26.509Z,97422.88
2024-05-09T00:30:56.409Z,97425.50
2024-05-09T00:33:26.596Z,97423.06
2024-05-09T00:35:59.143Z,97417.19
2024-05-09T00:38:29.054Z,97427.34
2024-05-09T00:40:58.922Z,97417.41
2024-05-09T00:43:28.790Z,97407.84
2024-05-09T00:45:58.881Z,97414.75
2024-05-09T00:48:30.410Z,97408.06
2024-05-09T00:51:03.120Z,97412.69
2024-05-09T00:53:34.037Z,97423.66
2024-05-09T00:56:04.509Z,97421.44
2024-05-09T00:58:34.855Z,97416.75
2024-05-09T01:01:05.431Z,97414.31
2024-05-09T01:03:35.561Z,97419.97
2024-05-09T01:06:08.354Z,97416.94
2024-05-09T01:08:38.467Z,97412.06
2024-05-09T01:11:08.527Z,97411.03
2024-05-09T01:13:38.538Z,97405.75
2024-05-09T01:16:09.089Z,97407.38
2024-05-09T01:18:38.998Z,97404.53
2024-05-09T01:21:11.925Z,97410.63
2024-05-09T01:23:44.555Z,97412.22
2024-05-09T01:26:14.571Z,97411.75
2024-05-09T01:28:44.451Z,97402.03
2024-05-09T01:31:15.990Z,97408.13
2024-05-09T01:33:46.137Z,97412.16
2024-05-09T01:36:16.183Z,97406.91
2024-05-09T01:38:48.634Z,97412.16
2024-05-09T01:41:18.663Z,97406.91
2024-05-09T01:43:48.699Z,97408.88
2024-05-09T01:46:19.574Z,97410.09
2024-05-09T01:48:49.885Z,97412.72
2024-05-09T01:51:20.054Z,97409.47
2024-05-09T01:53:52.562Z,97408.41
2024-05-09T01:56:22.540Z,97407.78
2024-05-09T01:58:52.423Z,97414.06
2024-05-09T02:01:22.324Z,97410.00
2024-05-09T02:03:52.490Z,97414.28
2024-05-09T02:06:22.614Z,97409.00
2024-05-09T02:08:55.123Z,97425.44
2024-05-09T02:11:25.076Z,97418.06
2024-05-09T02:13:55.044Z,97418.06
2024-05-09T02:16:24.980Z,97414.19
2024-05-09T02:18:54.927Z,97414.63
2024-05-09T02:21:24.866Z,97407.50
2024-05-09T02:23:57.338Z,97410.84
2024-05-09T02:26:27.257Z,97406.38
2024-05-09T02:28:57.262Z,97401.13
2024-05-09T02:31:27.177Z,97407.59
2024-05-09T02:33:57.147Z,97405.16
2024-05-09T02:36:27.004Z,97402.09
2024-05-09T02:38:56.840Z,97407.81
2024-05-09T02:41:31.109Z,97413.28
2024-05-09T02:43:58.651Z,97418.16
2024-05-09T02:46:28.516Z,97414.06
2024-05-09T02:48:55.869Z,97419.72
2024-05-09T02:51:25.739Z,97413.81
2024-05-09T02:53:52.975Z,97406.28
2024-05-09T02:56:25.675Z,97405.47
2024-05-09T02:58:53.023Z,97404.84
2024-05-09T03:01:22.922Z,97409.50
2024-05-09T03:03:51.262Z,97410.09
2024-05-09T03:06:21.486Z,97415.13
2024-05-09T03:08:48.776Z,97418.31
2024-05-09T03:11:28.243Z,97421.66
2024-05-09T03:13:55.596Z,97423.50
2024-05-09T03:16:25.586Z,97415.34
2024-05-09T03:18:54.652Z,97417.75
2024-05-09T03:21:24.610Z,97415.56
2024-05-09T03:23:51.889Z,97418.38
2024-05-09T03:26:21.854Z,97411.72
2024-05-09T03:28:51.904Z,97413.69
2024-05-09T03:31:21.922Z,97414.97
2024-05-09T03:33:49.402Z,97408.13
2024-05-09T03:36:19.488Z,97415.25
2024-05-09T03:38:50.805Z,97406.41
2024-05-09T03:41:22.608Z,97407.66
2024-05-09T03:43:55.129Z,97406.44
2024-05-09T03:46:23.689Z,97406.06
2024-05-09T03:48:53.589Z,97404.88
2024-05-09T03:51:20.987Z,97406.69
2024-05-09T03:53:50.827Z,97413.16
2024-05-09T03:56:18.468Z,97413.97
2024-05-09T03:58:48.363Z,97408.06
2024-05-09T04:01:19.464Z,97406.88
2024-05-09T04:03:49.520Z,97411.75
2024-05-09T04:06:21.387Z,97411.75
2024-05-09T04:08:51.219Z,97413.38
2024-05-09T04:11:18.697Z,97413.56
2024-05-09T04:13:48.800Z,97412.19
2024-05-09T04:16:18.653Z,97414.25
2024-05-09T04:18:48.710Z,97407.97
2024-05-09T04:21:18.473Z,97405.09
2024-05-09T04:23:48.491Z,97399.84
2024-05-09T04:26:15.904Z,97401.09
2024-05-09T04:28:45.726Z,97403.94
2024-05-09T04:31:12.995Z,97407.38
2024-05-09T04:33:45.584Z,97414.47
2024-05-09T04:36:12.946Z,97419.56
2024-05-09T04:38:42.762Z,97420.56
2024-05-09T04:41:10.011Z,97413.06
2024-05-09T04:43:39.841Z,97420.97
2024-05-09T04:46:07.079Z,97423.25
2024-05-09T04:48:36.991Z,97419.00
2024-05-09T04:51:07.629Z,97428.53
2024-05-09T04:53:37.644Z,97419.19
2024-05-09T04:56:06.563Z,97425.91
2024-05-09T04:58:36.487Z,97415.59
2024-05-09T05:01:05.013Z,97423.72
2024-05-09T05:03:35.834Z,97423.72
2024-05-09T05:06:03.594Z,97429.56
2024-05-09T05:08:37.116Z,97429.38
2024-05-09T05:11:04.946Z,97432.59
2024-05-09T05:13:36.706Z,97431.03
2024-05-09T05:16:06.385Z,97426.78
2024-05-09T05:18:36.597Z,97421.31
2024-05-09T05:21:04.512Z,97432.72
2024-05-09T05:23:37.074Z,97432.50
2024-05-09T05:26:05.897Z,97432.13
2024-05-09T05:28:35.819Z,97431.75
2024-05-09T05:31:03.084Z,97434.59
2024-05-09T05:33:34.242Z,97440.72
2024-05-09T05:36:01.613Z,97442.38
2024-05-09T05:38:31.505Z,97436.72
2024-05-09T05:41:01.555Z,97433.69
2024-05-09T05:43:31.985Z,97431.28
2024-05-09T05:45:59.191Z,97433.13
2024-05-09T05:48:29.220Z,97435.78
2024-05-09T05:50:56.524Z,97439.06
2024-05-09T05:53:26.376Z,97447.81
2024-05-09T05:55:53.744Z,97451.28
2024-05-09T05:58:26.188Z,97451.09
2024-05-09T06:00:53.689Z,97448.47
2024-05-09T06:03:23.723Z,97450.13
2024-05-09T06:05:51.385Z,97442.59
2024-05-09T06:08:21.368Z,97438.97
2024-05-09T06:10:48.893Z,97441.03
2024-05-09T06:13:18.786Z,97444.47
2024-05-09T06:15:48.656Z,97449.16
2024-05-09T06:18:18.769Z,97447.34
2024-05-09T06:20:46.213Z,97439.41
2024-05-09T06:23:17.119Z,97444.66
2024-05-09T06:25:44.800Z,97444.66
2024-05-09T06:28:14.737Z,97447.31
2024-05-09T06:30:43.214Z,97445.47
2024-05-09T06:33:16.798Z,97453.59
2024-05-09T06:35:46.075Z,97449.34
2024-05-09T06:38:16.220Z,97456.25
2024-05-09T06:40:44.482Z,97446.06
2024-05-09T06:43:17.751Z,97447.69
2024-05-09T06:45:47.477Z,97454.19
2024-05-09T06:48:22.303Z,97460.47
2024-05-09T06:50:50.405Z,97457.63
2024-05-09T06:53:23.648Z,97450.50
2024-05-09T06:55:51.096Z,97454.34
2024-05-09T06:58:20.963Z,97452.50
2024-05-09T07:00:48.351Z,97450.63
2024-05-09T07:03:21.150Z,97443.88
2024-05-09T07:05:49.598Z,97445.94
2024-05-09T07:08:20.062Z,97448.13
2024-05-09T07:10:47.745Z,97440.78
2024-05-09T07:13:18.060Z,97448.25
2024-05-09T07:15:45.397Z,97450.69
2024-05-09T07:18:20.023Z,97452.31
2024-05-09T07:20:50.950Z,97452.13
2024-05-09T07:23:23.000Z,97452.69
2024-05-09T07:25:50.453Z,97452.06
2024-05-09T07:28:22.054Z,97443.91
2024-05-09T07:30:49.336Z,97449.06
2024-05-09T07:33:21.354Z,97447.56
2024-05-09T07:35:53.075Z,97442.84
2024-05-09T07:38:23.232Z,97447.25
2024-05-09T07:40:50.589Z,97442.38
2024-05-09T07:43:20.586Z,97448.25
2024-05-09T07:45:53.042Z,97440.09
2024-05-09T07:50:00.638Z,97437.63
2024-05-09T07:53:53.386Z,97441.75
2024-05-09T07:56:24.282Z,97443.94
2024-05-09T07:58:55.533Z,97439.88
2024-05-09T08:01:27.540Z,97440.59
2024-05-09T08:03:57.810Z,97439.50
2024-05-09T08:06:28.126Z,97432.06
2024-05-09T08:09:02.650Z,97435.88
2024-05-09T08:11:32.565Z,97422.03
2024-05-09T08:14:02.407Z,97429.56
2024-05-09T08:16:29.754Z,97421.56
2024-05-09T08:18:59.695Z,97423.09
2024-05-09T08:21:29.744Z,97428.78
2024-05-09T08:23:59.645Z,97417.72
2024-05-09T08:26:26.911Z,97414.28
2024-05-09T08:28:56.703Z,97419.97
2024-05-09T08:31:24.091Z,97417.16
2024-05-09T08:33:56.516Z,97418.66
2024-05-09T08:36:23.971Z,97418.72
2024-05-09T08:38:56.971Z,97414.75
2024-05-09T08:41:24.290Z,97416.44
2024-05-09T08:43:54.200Z,97417.41
2024-05-09T08:46:21.562Z,97412.59
2024-05-09T08:48:54.747Z,97414.44
2024-05-09T08:51:22.155Z,97414.88
2024-05-09T08:53:52.078Z,97421.00
2024-05-09T08:56:26.152Z,97420.63
2024-05-09T08:59:02.943Z,97422.72
2024-05-09T09:01:32.117Z,97419.13
2024-05-09T09:04:06.891Z,97421.78
2024-05-09T09:06:35.919Z,97417.72
2024-05-09T09:09:06.692Z,97425.69
2024-05-09T09:12:02.857Z,97412.06
2024-05-09T09:14:32.684Z,97417.38
2024-05-09T09:16:59.938Z,97417.63
2024-05-09T09:19:29.761Z,97414.53
2024-05-09T09:21:57.050Z,97407.84
2024-05-09T09:24:26.999Z,97405.19
2024-05-09T09:26:56.744Z,97400.47
2024-05-09T09:29:29.489Z,97406.63
2024-05-09T09:31:59.817Z,97411.94
2024-05-09T09:34:31.182Z,97408.81
2024-05-09T09:37:03.909Z,97410.44
2024-05-09T09:39:35.277Z,97406.28
2024-05-09T09:42:05.094Z,97400.97
2024-05-09T09:44:41.933Z,97399.16
2024-05-09T09:47:11.001Z,97407.13
2024-05-09T09:49:42.059Z,97404.16
2024-05-09T09:52:11.262Z,97403.09
2024-05-09T09:54:41.890Z,97410.03
2024-05-09T09:57:09.226Z,97396.03
2024-05-09T09:59:44.144Z,97396.50
2024-05-09T10:02:12.553Z,97398.47
2024-05-09T10:04:43.034Z,97403.78
2024-05-09T10:07:14.496Z,97391.28
2024-05-09T10:09:44.924Z,97394.97
2024-05-09T10:12:13.857Z,97392.44
2024-05-09T10:14:51.362Z,97401.91
2024-05-09T10:17:18.645Z,97393.59
2024-05-09T10:19:49.586Z,97391.28
2024-05-09T10:22:27.920Z,97384.06
2024-05-09T10:25:06.131Z,97384.06
2024-05-09T10:27:33.614Z,97384.16
2024-05-09T10:30:14.612Z,97389.28
2024-05-09T10:32:53.895Z,97385.91
2024-05-09T10:35:26.752Z,97382.28
2024-05-09T10:37:55.482Z,97385.34
2024-05-09T10:40:31.023Z,97375.59
2024-05-09T10:43:03.483Z,97376.16
2024-05-09T10:46:07.065Z,97383.59
2024-05-09T10:48:38.671Z,97367.13
2024-05-09T10:51:06.546Z,97366.91
2024-05-09T10:53:43.869Z,97369.69
2024-05-09T10:56:13.189Z,97368.78
2024-05-09T10:58:43.176Z,97368.78
2024-05-09T11:01:14.015Z,97366.44
2024-05-09T11:03:44.858Z,97364.13
2024-05-09T11:06:14.898Z,97359.38
2024-05-09T11:08:45.977Z,97354.28
2024-05-09T11:11:13.523Z,97358.09
2024-05-09T11:13:44.266Z,97354.94
2024-05-09T11:16:21.286Z,97349.22
2024-05-09T11:18:59.540Z,97352.47
2024-05-09T11:21:27.127Z,97344.56
2024-05-09T11:23:57.174Z,97342.38
2024-05-09T11:26:28.093Z,97346.00
2024-05-09T11:28:57.955Z,97344.56
2024-05-09T11:31:28.089Z,97345.75
2024-05-09T11:33:58.015Z,97341.50
2024-05-09T11:36:25.366Z,97343.38
2024-05-09T11:38:55.210Z,97325.72
2024-05-09T11:41:22.502Z,97328.78
2024-05-09T11:43:52.387Z,97333.63
2024-05-09T11:46:22.180Z,97331.31
2024-05-09T11:48:54.887Z,97338.88
2024-05-09T11:51:22.241Z,97325.25
2024-05-09T11:53:52.000Z,97333.41
2024-05-09T11:56:21.013Z,97326.38
2024-05-09T11:58:51.146Z,97324.19
2024-05-09T12:01:20.004Z,97328.16
2024-05-09T12:03:51.456Z,97313.03
2024-05-09T12:06:21.632Z,97310.53
2024-05-09T12:08:51.674Z,97317.31
2024-05-09T12:11:18.965Z,97304.53
2024-05-09T12:13:49.172Z,97306.34
2024-05-09T12:16:16.891Z,97301.25
2024-05-09T12:18:47.026Z,97294.69
2024-05-09T12:21:17.313Z,97296.47
2024-05-09T12:23:49.769Z,97296.47
2024-05-09T12:26:17.192Z,97289.31
2024-05-09T12:28:47.104Z,97288.00
2024-05-09T12:31:14.422Z,97296.50
2024-05-09T12:33:44.338Z,97294.56
2024-05-09T12:36:11.804Z,97289.38
2024-05-09T12:38:41.728Z,97297.94
2024-05-09T12:41:11.743Z,97292.94
2024-05-09T12:43:47.351Z,97291.13
2024-05-09T12:46:14.719Z,97285.41
2024-05-09T12:48:45.076Z,97274.34
2024-05-09T12:51:16.197Z,97282.56
2024-05-09T12:53:46.060Z,97269.47
2024-05-09T12:56:16.002Z,97283.91
2024-05-09T12:58:45.836Z,97277.41
2024-05-09T13:01:17.701Z,97280.66
2024-05-09T13:03:47.667Z,97270.06
2024-05-09T13:06:14.926Z,97279.47
2024-05-09T13:08:46.039Z,97272.38
2024-05-09T13:11:16.041Z,97274.16
2024-05-09T13:13:48.754Z,97270.13
2024-05-09T13:16:16.053Z,97276.28
2024-05-09T13:18:46.233Z,97274.34
2024-05-09T13:21:13.603Z,97265.50
2024-05-09T13:23:43.409Z,97272.88
2024-05-09T13:26:10.684Z,97264.44
2024-05-09T13:28:43.151Z,97265.44
2024-05-09T13:31:10.460Z,97261.34
2024-05-09T13:33:40.467Z,97265.19
2024-05-09T13:36:08.377Z,97249.91
2024-05-09T13:38:38.187Z,97251.88
2024-05-09T13:41:05.665Z,97247.84
2024-05-09T13:43:35.588Z,97238.69
2024-05-09T13:46:05.701Z,97246.47
2024-05-09T13:48:35.735Z,97237.41
2024-05-09T13:51:03.091Z,97241.44
2024-05-09T13:53:32.952Z,97224.13
2024-05-09T13:56:00.335Z,97229.91
2024-05-09T13:58:30.190Z,97223.91
2024-05-09T14:00:58.262Z,97227.84
2024-05-09T14:03:31.200Z,97225.88
2024-05-09T14:05:59.267Z,97224.56
2024-05-09T14:08:29.283Z,97217.44
2024-05-09T14:10:56.609Z,97220.41
2024-05-09T14:13:26.472Z,97209.59
2024-05-09T14:15:53.949Z,97214.78
2024-05-09T14:18:24.244Z,97207.06
2024-05-09T14:20:54.169Z,97200.25
2024-05-09T14:23:25.357Z,97192.56
2024-05-09T14:25:53.383Z,97198.22
2024-05-09T14:28:26.082Z,97192.63
2024-05-09T14:30:53.563Z,97191.31
2024-05-09T14:33:26.777Z,97196.47
2024-05-09T14:35:57.036Z,97199.03
2024-05-09T14:38:27.276Z,97194.72
2024-05-09T14:40:54.556Z,97193.69
2024-05-09T14:43:24.847Z,97188.03
2024-05-09T14:45:53.323Z,97185.13
2024-05-09T14:48:23.272Z,97188.22
2024-05-09T14:50:50.574Z,97180.16
2024-05-09T14:53:23.561Z,97184.13
2024-05-09T14:55:50.939Z,97180.91
2024-05-09T14:58:21.569Z,97177.97
2024-05-09T15:00:51.154Z,97180.94
2024-05-09T15:03:22.741Z,97173.81
2024-05-09T15:05:51.353Z,97170.59
2024-05-09T15:08:24.335Z,97173.75
2024-05-09T15:10:51.926Z,97172.22
2024-05-09T15:13:23.085Z,97172.16
2024-05-09T15:15:50.424Z,97166.44
2024-05-09T15:18:20.584Z,97164.53
2024-05-09T15:20:48.321Z,97170.13
2024-05-09T15:23:18.405Z,97163.41
2024-05-09T15:25:48.256Z,97163.41
2024-05-09T15:28:18.704Z,97156.13
2024-05-09T15:30:46.947Z,97151.34
2024-05-09T15:33:17.392Z,97150.31
2024-05-09T15:35:46.765Z,97143.09
2024-05-09T15:38:18.762Z,97143.47
2024-05-09T15:40:48.944Z,97142.38
2024-05-09T15:43:18.936Z,97142.66
2024-05-09T15:45:46.301Z,97147.31
2024-05-09T15:48:16.586Z,97149.94
2024-05-09T15:50:44.193Z,97149.44
2024-05-09T15:53:15.157Z,97145.31
2024-05-09T15:55:43.223Z,97148.00
2024-05-09T15:58:16.700Z,97145.56
2024-05-09T16:00:45.656Z,97146.38
2024-05-09T16:03:17.147Z,97144.53
2024-05-09T16:05:45.280Z,97139.19
2024-05-09T16:08:16.692Z,97140.00
2024-05-09T16:10:46.102Z,97141.34
2024-05-09T16:13:20.137Z,97138.69
2024-05-09T16:15:47.693Z,97142.22
2024-05-09T16:18:18.204Z,97132.81
2024-05-09T16:20:50.235Z,97138.09
2024-05-09T16:23:20.464Z,97135.97
2024-05-09T16:25:48.408Z,97136.78
2024-05-09T16:28:22.900Z,97134.34
2024-05-09T16:30:51.346Z,97128.69
2024-05-09T16:33:23.691Z,97138.53
2024-05-09T16:35:52.793Z,97129.97
2024-05-09T16:38:22.739Z,97124.09
2024-05-09T16:40:52.232Z,97130.47
2024-05-09T16:43:25.150Z,97124.91
2024-05-09T16:46:17.444Z,97128.34
2024-05-09T16:49:35.447Z,97125.44
2024-05-09T16:52:05.445Z,97119.00
2024-05-09T16:54:32.805Z,97124.22
2024-05-09T16:57:02.764Z,97120.16
2024-05-09T16:59:32.830Z,97115.88
2024-05-09T17:02:02.904Z,97117.00
2024-05-09T17:04:55.335Z,97124.69
2024-05-09T17:07:25.333Z,97129.69
2024-05-09T17:09:52.712Z,97123.56
2024-05-09T17:12:28.351Z,97121.16
2024-05-09T17:15:00.795Z,97122.94
2024-05-09T17:20:32.036Z,97127.78
2024-05-09T17:23:13.943Z,97119.44
2024-05-09T17:25:45.298Z,97118.91
2024-05-09T17:28:12.867Z,97120.38
2024-05-09T17:30:45.552Z,97119.25
2024-05-09T17:33:14.102Z,97117.06
2024-05-09T17:35:45.932Z,97128.28
2024-05-09T17:38:14.040Z,97123.53
2024-05-09T17:40:44.399Z,97125.63
2024-05-09T17:43:11.710Z,97132.00
2024-05-09T17:45:42.446Z,97123.94
2024-05-09T17:48:13.038Z,97122.31
2024-05-09T17:50:43.166Z,97121.81
2024-05-09T17:53:11.241Z,97120.22
2024-05-09T17:55:42.620Z,97115.31
2024-05-09T17:58:12.806Z,97121.88
2024-05-09T18:00:43.070Z,97124.25
2024-05-09T18:03:15.001Z,97116.53
2024-05-09T18:05:46.441Z,97119.34
2024-05-09T18:08:14.348Z,97128.31
2024-05-09T18:10:44.787Z,97124.53
2024-05-09T18:13:13.749Z,97124.28
2024-05-09T18:15:48.541Z,97116.66
2024-05-09T18:18:18.751Z,97127.63
2024-05-09T18:20:48.696Z,97126.19
2024-05-09T18:23:18.400Z,97122.41
2024-05-09T18:25:51.139Z,97129.47
2024-05-09T18:28:18.657Z,97127.28
2024-05-09T18:30:48.824Z,97129.22
2024-05-09T18:33:19.450Z,97131.16
2024-05-09T18:35:51.656Z,97130.81
2024-05-09T18:38:25.322Z,97131.88
2024-05-09T18:40:56.646Z,97130.66
2024-05-09T18:43:31.047Z,97132.88
2024-05-09T18:46:06.878Z,97138.53
2024-05-09T18:48:40.543Z,97128.78
2024-05-09T18:51:10.591Z,97132.97
2024-05-09T18:53:40.869Z,97143.00
2024-05-09T18:56:16.258Z,97144.84
2024-05-09T18:58:43.539Z,97138.50
2024-05-09T19:01:14.162Z,97145.34
2024-05-09T19:03:44.354Z,97145.00
2024-05-09T19:06:14.496Z,97150.81
2024-05-09T19:08:41.803Z,97155.00
2024-05-09T19:11:12.588Z,97159.50
2024-05-09T19:13:40.452Z,97162.84
2024-05-09T19:16:10.763Z,97158.03
2024-05-09T19:18:38.294Z,97153.50
2024-05-09T19:21:11.591Z,97163.91
2024-05-09T19:23:44.330Z,97168.66
2024-05-09T19:26:21.029Z,97166.22
2024-05-09T19:28:48.364Z,97166.22
2024-05-09T19:31:19.532Z,97167.41
2024-05-09T19:33:46.877Z,97172.94
2024-05-09T19:36:19.522Z,97166.59
2024-05-09T19:38:48.248Z,97172.63
2024-05-09T19:41:40.760Z,97180.81
2024-05-09T19:44:12.177Z,97175.63
2024-05-09T19:46:39.460Z,97172.16
2024-05-09T19:49:12.600Z,97171.56
2024-05-09T19:51:45.789Z,97174.47
2024-05-09T19:54:18.528Z,97172.50
2024-05-09T19:56:47.876Z,97171.81
2024-05-09T19:59:17.673Z,97174.59
2024-05-09T20:01:45.226Z,97171.25
2024-05-09T20:04:15.366Z,97166.06
2024-05-09T20:06:45.481Z,97174.94
2024-05-09T20:09:15.280Z,97170.31
2024-05-09T20:11:42.814Z,97174.72
2024-05-09T20:14:14.532Z,97175.63
2024-05-09T20:16:41.777Z,97178.34
2024-05-09T20:19:11.749Z,97179.06
2024-05-09T20:21:42.211Z,97171.75
2024-05-09T20:24:15.034Z,97171.41
2024-05-09T20:26:42.263Z,97177.84
2024-05-09T20:29:12.490Z,97184.44
2024-05-09T20:31:41.229Z,97183.50
2024-05-09T20:34:16.131Z,97184.75
2024-05-09T20:36:43.458Z,97182.56
2024-05-09T20:39:15.952Z,97187.84
2024-05-09T20:41:43.847Z,97178.06
2024-05-09T20:44:13.635Z,97180.50
2024-05-09T20:46:40.877Z,97180.50
2024-05-09T20:49:10.875Z,97180.94
2024-05-09T20:51:38.292Z,97184.03
2024-05-09T20:54:08.162Z,97180.44
2024-05-09T20:56:38.030Z,97187.25
2024-05-09T20:59:07.835Z,97182.63
2024-05-09T21:01:35.252Z,97183.28
2024-05-09T21:04:05.686Z,97177.25
2024-05-09T21:06:33.181Z,97185.91
2024-05-09T21:09:03.145Z,97187.22
2024-05-09T21:11:30.395Z,97188.72
2024-05-09T21:14:02.953Z,97178.56
2024-05-09T21:16:33.805Z,97180.50
2024-05-09T21:19:03.787Z,97169.75
2024-05-09T21:21:38.294Z,97177.06
2024-05-09T21:24:08.833Z,97176.56
2024-05-09T21:26:37.318Z,97176.66
2024-05-09T21:29:09.693Z,97172.03
2024-05-09T21:31:36.944Z,97172.81
2024-05-09T21:34:06.883Z,97171.00
2024-05-09T21:36:34.300Z,97169.91
2024-05-09T21:39:04.173Z,97171.59
2024-05-09T21:41:31.786Z,97171.16
2024-05-09T21:44:01.631Z,97164.88
2024-05-09T21:46:31.644Z,97181.09
2024-05-09T21:49:02.935Z,97170.16
2024-05-09T21:51:31.069Z,97164.94
2024-05-09T21:54:01.151Z,97163.91
2024-05-09T21:56:28.634Z,97161.19
2024-05-09T21:58:59.019Z,97166.19
2024-05-09T22:01:26.485Z,97165.09
2024-05-09T22:03:59.146Z,97170.13
2024-05-09T22:06:26.521Z,97165.88
2024-05-09T22:08:56.315Z,97165.38
2024-05-09T22:11:23.618Z,97161.13
2024-05-09T22:13:53.669Z,97153.47
2024-05-09T22:16:21.031Z,97150.03
2024-05-09T22:18:51.107Z,97156.78
2024-05-09T22:21:20.996Z,97158.00
2024-05-09T22:23:51.030Z,97152.75
2024-05-09T22:26:18.273Z,97149.72
2024-05-09T22:28:48.100Z,97149.31
2024-05-09T22:31:15.544Z,97150.38
2024-05-09T22:33:47.976Z,97157.50
2024-05-09T22:36:15.765Z,97160.16
2024-05-09T22:38:48.172Z,97160.19
2024-05-09T22:41:15.631Z,97160.44
2024-05-09T22:43:45.436Z,97156.13
2024-05-09T22:46:16.494Z,97164.69
2024-05-09T22:48:50.838Z,97159.19
2024-05-09T22:51:18.134Z,97163.50
2024-05-09T22:53:50.578Z,97169.22
2024-05-09T22:56:27.006Z,97170.44
2024-05-09T22:58:56.925Z,97166.81
2024-05-09T23:01:26.787Z,97171.75
2024-05-09T23:03:56.919Z,97172.53
2024-05-09T23:06:24.274Z,97171.94
2024-05-09T23:08:58.338Z,97168.13
2024-05-09T23:11:25.654Z,97167.72
2024-05-09T23:13:55.451Z,97164.84
2024-05-09T23:16:22.996Z,97162.00
2024-05-09T23:18:52.969Z,97163.63
2024-05-09T23:21:20.803Z,97164.69
2024-05-09T23:23:50.621Z,97164.09
2024-05-09T23:26:23.900Z,97160.84
2024-05-09T23:28:53.801Z,97159.25
2024-05-09T23:31:21.060Z,97154.53
2024-05-09T23:33:51.210Z,97161.44
2024-05-09T23:36:18.626Z,97159.25
2024-05-09T23:38:48.506Z,97155.63
2024-05-09T23:41:15.720Z,97157.28
2024-05-09T23:43:48.120Z,97153.59
2024-05-09T23:46:15.446Z,97156.88
2024-05-09T23:48:45.401Z,97154.06
2024-05-09T23:51:12.727Z,97143.69
2024-05-09T23:53:46.966Z,97150.63
2024-05-09T23:56:15.261Z,97154.88
2024-05-09T23:58:48.861Z,97150.41
